createdAt,value
2023-09-29T00:01:42.236Z,16.20
2023-09-29T00:06:43.996Z,16.30
2023-09-29T00:11:45.845Z,16.30
2023-09-29T00:16:47.601Z,16.30
2023-09-29T00:21:50.000Z,16.50
2023-09-29T00:26:51.713Z,16.40
2023-09-29T00:31:53.460Z,16.40
2023-09-29T00:36:55.217Z,16.20
2023-09-29T00:41:57.588Z,16.20
2023-09-29T00:46:59.647Z,16.20
2023-09-29T00:52:02.965Z,16.20
2023-09-29T00:57:07.040Z,16.20
2023-09-29T01:02:11.670Z,16.20
2023-09-29T01:07:14.249Z,16.10
2023-09-29T01:12:28.681Z,16.00
2023-09-29T01:17:30.527Z,16.10
2023-09-29T01:22:32.584Z,16.10
2023-09-29T01:27:35.286Z,16.00
2023-09-29T01:32:37.168Z,16.00
2023-09-29T01:37:44.015Z,16.10
2023-09-29T01:42:46.184Z,16.10
2023-09-29T01:47:50.234Z,16.00
2023-09-29T01:52:52.781Z,16.00
2023-09-29T01:57:59.158Z,16.00
2023-09-29T02:03:07.640Z,16.00
2023-09-29T02:08:11.150Z,15.90
2023-09-29T02:13:13.367Z,15.90
2023-09-29T02:18:15.297Z,15.90
2023-09-29T02:23:17.368Z,15.80
2023-09-29T02:28:21.309Z,15.80
2023-09-29T02:33:25.267Z,15.90
2023-09-29T02:38:27.075Z,15.90
2023-09-29T02:43:31.781Z,15.80
2023-09-29T02:48:33.660Z,15.80
2023-09-29T02:53:35.588Z,15.70
2023-09-29T02:58:37.429Z,15.70
2023-09-29T03:03:45.547Z,15.70
2023-09-29T03:08:52.474Z,15.60
2023-09-29T03:13:56.983Z,15.50
2023-09-29T03:18:58.677Z,15.50
2023-09-29T03:24:00.567Z,15.50
2023-09-29T03:29:02.322Z,15.40
2023-09-29T03:34:05.184Z,15.50
2023-09-29T03:39:08.748Z,15.40
2023-09-29T03:44:13.506Z,15.50
2023-09-29T03:49:15.374Z,15.50
2023-09-29T03:54:17.125Z,15.50
2023-09-29T03:59:19.473Z,15.40
2023-09-29T04:04:21.365Z,15.30
2023-09-29T04:09:23.105Z,15.30
2023-09-29T04:14:33.724Z,15.20
2023-09-29T04:19:36.542Z,15.30
2023-09-29T04:24:38.978Z,15.20
2023-09-29T04:29:41.090Z,15.20
2023-09-29T04:34:42.902Z,15.20
2023-09-29T04:39:44.866Z,15.10
2023-09-29T04:44:46.703Z,15.20
2023-09-29T04:49:48.545Z,15.20
2023-09-29T04:54:50.332Z,15.20
2023-09-29T04:59:52.220Z,15.20
2023-09-29T05:04:53.974Z,15.20
2023-09-29T05:09:55.735Z,15.20
2023-09-29T05:14:58.437Z,15.30
2023-09-29T05:20:00.304Z,15.40
2023-09-29T05:25:02.532Z,15.40
2023-09-29T05:30:04.801Z,15.50
2023-09-29T05:35:07.289Z,15.50
2023-09-29T05:40:09.795Z,15.60
2023-09-29T05:45:13.302Z,15.60
2023-09-29T05:50:19.114Z,15.70
2023-09-29T05:55:21.466Z,15.80
2023-09-29T06:00:23.409Z,15.80
2023-09-29T06:05:25.198Z,15.80
2023-09-29T06:10:27.222Z,16.00
2023-09-29T06:15:29.157Z,16.20
2023-09-29T06:20:30.989Z,16.80
2023-09-29T06:25:34.222Z,18.10
2023-09-29T06:30:36.745Z,18.60
2023-09-29T06:35:38.625Z,21.20
2023-09-29T06:40:40.352Z,23.30
2023-09-29T06:45:59.858Z,23.70
2023-09-29T06:51:03.699Z,24.50
2023-09-29T06:56:05.605Z,23.50
2023-09-29T07:01:08.585Z,24.30
2023-09-29T07:06:10.545Z,24.70
2023-09-29T07:11:12.480Z,24.30
2023-09-29T07:16:14.975Z,24.20
2023-09-29T07:21:16.831Z,23.10
2023-09-29T07:26:18.574Z,24.00
2023-09-29T07:31:20.393Z,24.50
2023-09-29T07:36:22.860Z,23.60
2023-09-29T07:41:24.876Z,25.00
2023-09-29T07:46:26.709Z,25.80
2023-09-29T07:51:28.598Z,25.70
2023-09-29T07:56:31.666Z,25.10
2023-09-29T08:01:33.649Z,25.70
2023-09-29T08:06:36.411Z,25.60
2023-09-29T08:11:38.219Z,25.10
2023-09-29T08:16:40.001Z,25.00
2023-09-29T08:21:41.746Z,25.80
2023-09-29T08:26:43.692Z,26.10
2023-09-29T08:31:45.644Z,26.30
2023-09-29T08:36:47.417Z,25.30
2023-09-29T08:42:02.073Z,25.30
2023-09-29T08:47:04.078Z,25.10
2023-09-29T08:52:07.096Z,26.60
2023-09-29T08:57:09.100Z,28.20
2023-09-29T09:02:11.080Z,28.30
2023-09-29T09:07:14.691Z,28.80
2023-09-29T09:12:18.158Z,28.90
2023-09-29T09:17:20.195Z,29.70
2023-09-29T09:22:38.790Z,26.90
2023-09-29T09:27:50.261Z,24.70
2023-09-29T09:32:52.302Z,23.80
2023-09-29T09:37:54.720Z,24.30
2023-09-29T09:43:04.663Z,25.60
2023-09-29T09:48:11.522Z,26.90
2023-09-29T09:53:15.726Z,28.50
2023-09-29T09:58:18.484Z,29.30
2023-09-29T10:03:21.780Z,28.30
2023-09-29T10:08:32.135Z,25.60
2023-09-29T10:13:38.132Z,25.00
2023-09-29T10:18:40.011Z,24.20
2023-09-29T10:23:51.658Z,24.20
2023-09-29T10:29:02.635Z,23.30
2023-09-29T10:34:04.478Z,23.10
2023-09-29T10:39:06.255Z,23.00
2023-09-29T10:44:08.561Z,23.10
2023-09-29T10:49:10.482Z,23.20
2023-09-29T10:54:12.478Z,23.20
2023-09-29T10:59:14.346Z,23.20
2023-09-29T11:04:16.451Z,23.00
2023-09-29T11:09:22.140Z,23.30
2023-09-29T11:14:26.356Z,23.30
2023-09-29T11:19:32.067Z,23.30
2023-09-29T11:24:41.508Z,23.30
2023-09-29T11:29:45.173Z,23.10
2023-09-29T11:34:47.734Z,23.30
2023-09-29T11:39:49.689Z,23.30
2023-09-29T11:44:52.073Z,23.50
2023-09-29T11:49:53.793Z,23.40
2023-09-29T11:54:55.571Z,23.40
2023-09-29T11:59:57.342Z,23.30
2023-09-29T12:04:59.082Z,23.30
2023-09-29T12:10:01.198Z,23.30
2023-09-29T12:15:03.430Z,23.20
2023-09-29T12:20:09.008Z,23.30
2023-09-29T12:25:15.584Z,23.40
2023-09-29T12:30:18.985Z,23.50
2023-09-29T12:35:20.813Z,23.70
2023-09-29T12:40:23.008Z,23.60
2023-09-29T12:45:24.898Z,23.60
2023-09-29T12:50:27.036Z,23.70
2023-09-29T12:55:28.808Z,23.70
2023-09-29T13:00:30.756Z,23.80
2023-09-29T13:05:38.990Z,23.70
2023-09-29T13:10:41.088Z,23.70
2023-09-29T13:15:43.331Z,23.80
2023-09-29T13:20:46.411Z,23.80
2023-09-29T13:25:48.184Z,23.80
2023-09-29T13:30:54.778Z,23.80
2023-09-29T13:35:57.005Z,23.70
2023-09-29T13:40:58.888Z,23.60
2023-09-29T13:46:00.667Z,23.50
2023-09-29T13:51:07.580Z,23.20
2023-09-29T13:56:13.147Z,23.00
2023-09-29T14:01:18.917Z,23.00
2023-09-29T14:06:20.713Z,22.90
2023-09-29T14:11:22.527Z,22.90
2023-09-29T14:16:24.317Z,22.80
2023-09-29T14:21:26.278Z,22.70
2023-09-29T14:26:28.517Z,22.60
2023-09-29T14:31:30.436Z,22.40
2023-09-29T14:36:32.250Z,22.20
2023-09-29T14:41:34.020Z,21.90
2023-09-29T14:46:35.851Z,21.60
2023-09-29T14:51:38.117Z,21.30
2023-09-29T14:56:39.897Z,21.20
2023-09-29T15:01:41.649Z,21.00
2023-09-29T15:06:43.471Z,20.70
2023-09-29T15:11:45.673Z,20.40
2023-09-29T15:16:48.002Z,20.30
2023-09-29T15:21:49.900Z,20.20
2023-09-29T15:26:51.692Z,20.20
2023-09-29T15:31:53.708Z,20.10
2023-09-29T15:36:55.477Z,19.80
2023-09-29T15:41:57.283Z,19.80
2023-09-29T15:47:00.012Z,19.80
2023-09-29T15:52:05.094Z,19.60
2023-09-29T15:57:06.855Z,19.50
2023-09-29T16:02:25.723Z,19.50
2023-09-29T16:07:28.233Z,19.30
2023-09-29T16:12:30.479Z,19.10
2023-09-29T16:17:34.309Z,19.00
2023-09-29T16:22:36.284Z,19.00
2023-09-29T16:27:38.124Z,18.90
2023-09-29T16:32:39.986Z,18.70
2023-09-29T16:37:41.798Z,18.60
2023-09-29T16:42:43.696Z,18.50
2023-09-29T16:47:45.642Z,18.40
2023-09-29T16:52:47.543Z,18.30
2023-09-29T16:57:49.434Z,18.20
2023-09-29T17:02:51.274Z,18.10
2023-09-29T17:07:54.938Z,18.10
2023-09-29T17:12:56.747Z,17.90
2023-09-29T17:17:58.589Z,17.90
2023-09-29T17:23:00.422Z,17.80
2023-09-29T17:28:02.200Z,17.70
2023-09-29T17:33:04.882Z,17.70
2023-09-29T17:38:07.565Z,17.90
2023-09-29T17:43:09.477Z,18.00
2023-09-29T17:48:22.385Z,17.90
2023-09-29T17:53:32.548Z,17.90
2023-09-29T17:58:34.908Z,18.10
2023-09-29T18:03:36.939Z,18.20
2023-09-29T18:08:38.890Z,18.20
2023-09-29T18:13:40.784Z,18.00
2023-09-29T18:18:42.711Z,18.00
2023-09-29T18:23:44.697Z,18.00
2023-09-29T18:28:47.934Z,18.00
2023-09-29T18:33:49.718Z,18.30
2023-09-29T18:38:51.681Z,18.30
2023-09-29T18:43:55.026Z,18.30
2023-09-29T18:48:59.145Z,18.20
2023-09-29T18:54:01.429Z,18.30
2023-09-29T18:59:05.556Z,18.40
2023-09-29T19:04:07.379Z,18.50
2023-09-29T19:09:09.589Z,18.40
2023-09-29T19:14:12.449Z,18.40
2023-09-29T19:19:14.350Z,18.40
2023-09-29T19:24:16.127Z,18.50
2023-09-29T19:29:17.949Z,18.60
2023-09-29T19:34:19.738Z,18.70
2023-09-29T19:39:21.925Z,18.70
2023-09-29T19:44:23.728Z,18.70
2023-09-29T19:49:25.881Z,18.60
2023-09-29T19:54:28.637Z,18.50
2023-09-29T19:59:30.391Z,18.50
2023-09-29T20:04:32.295Z,18.50
2023-09-29T20:09:34.311Z,18.50
2023-09-29T20:14:36.403Z,18.40
2023-09-29T20:19:38.152Z,18.40
2023-09-29T20:24:40.168Z,18.50
2023-09-29T20:29:42.052Z,18.50
2023-09-29T20:34:43.781Z,18.40
2023-09-29T20:39:45.524Z,18.50
2023-09-29T20:44:47.536Z,18.50
2023-09-29T20:49:49.271Z,18.50
2023-09-29T20:54:50.978Z,18.50
2023-09-29T20:59:53.334Z,18.50
2023-09-29T21:04:55.607Z,18.40
2023-09-29T21:09:57.418Z,18.50
2023-09-29T21:15:00.109Z,18.40
2023-09-29T21:20:01.948Z,18.40
2023-09-29T21:25:03.996Z,18.40
2023-09-29T21:30:11.399Z,18.50
2023-09-29T21:35:14.402Z,18.40
2023-09-29T21:40:18.932Z,18.40
2023-09-29T21:45:20.672Z,18.40
2023-09-29T21:50:22.960Z,18.50
2023-09-29T21:55:24.922Z,18.50
2023-09-29T22:00:26.961Z,18.40
2023-09-29T22:05:28.844Z,18.50
2023-09-29T22:10:32.808Z,18.40
2023-09-29T22:15:34.703Z,18.40
2023-09-29T22:20:39.032Z,18.30
2023-09-29T22:25:41.298Z,18.20
2023-09-29T22:30:43.120Z,18.10
2023-09-29T22:35:45.099Z,18.10
2023-09-29T22:40:46.822Z,18.00
2023-09-29T22:45:48.763Z,18.00
2023-09-29T22:50:50.525Z,17.80
2023-09-29T22:55:58.357Z,17.60
2023-09-29T23:01:00.918Z,17.40
2023-09-29T23:06:03.452Z,17.30
2023-09-29T23:11:06.972Z,17.20
2023-09-29T23:16:10.348Z,17.10
2023-09-29T23:21:12.538Z,17.00
2023-09-29T23:26:14.424Z,16.80
2023-09-29T23:31:16.682Z,16.70
2023-09-29T23:36:20.893Z,16.60
2023-09-29T23:41:23.379Z,16.50
2023-09-29T23:46:26.402Z,16.40
2023-09-29T23:51:28.331Z,16.30
2023-09-29T23:56:30.279Z,16.20
